createdAt,value
2023-03-12T00:04:36.515Z,15.74
2023-03-12T00:09:39.720Z,15.66
2023-03-12T00:14:41.909Z,15.69
2023-03-12T00:19:45.583Z,15.82
2023-03-12T00:24:52.114Z,15.99
2023-03-12T00:29:54.784Z,16.10
2023-03-12T00:34:57.105Z,16.12
2023-03-12T00:39:59.876Z,15.95
2023-03-12T00:45:02.138Z,15.66
2023-03-12T00:50:04.815Z,15.80
2023-03-12T00:55:07.268Z,15.68
2023-03-12T01:00:13.167Z,15.61
2023-03-12T01:05:16.614Z,15.55
2023-03-12T01:10:21.940Z,15.53
2023-03-12T01:15:25.180Z,15.57
2023-03-12T01:20:27.711Z,15.53
2023-03-12T01:25:29.876Z,15.45
2023-03-12T01:30:32.177Z,15.39
2023-03-12T01:35:39.819Z,15.14
2023-03-12T01:40:43.988Z,15.02
2023-03-12T01:46:16.638Z,15.01
2023-03-12T01:51:20.066Z,14.99
2023-03-12T01:56:22.721Z,14.93
2023-03-12T02:01:25.495Z,14.92
2023-03-12T02:06:53.698Z,14.94
2023-03-12T02:11:56.086Z,15.00
2023-03-12T02:16:58.857Z,14.77
2023-03-12T02:22:02.110Z,14.49
2023-03-12T02:27:06.467Z,14.51
2023-03-12T02:32:10.317Z,14.28
2023-03-12T02:37:12.455Z,14.28
2023-03-12T02:42:15.493Z,13.92
2023-03-12T02:47:18.057Z,13.96
2023-03-12T02:52:20.233Z,13.82
2023-03-12T02:57:22.435Z,13.74
2023-03-12T03:02:24.855Z,13.60
2023-03-12T03:07:26.961Z,13.53
2023-03-12T03:12:29.972Z,13.31
2023-03-12T03:17:32.211Z,13.25
2023-03-12T03:22:34.414Z,13.50
2023-03-12T03:27:36.707Z,13.36
2023-03-12T03:32:39.449Z,13.29
2023-03-12T03:37:41.591Z,13.36
2023-03-12T03:42:43.826Z,13.22
2023-03-12T03:47:46.928Z,13.38
2023-03-12T03:52:49.082Z,13.36
2023-03-12T03:57:51.254Z,13.41
2023-03-12T04:02:53.569Z,13.35
2023-03-12T04:07:56.662Z,13.48
2023-03-12T04:12:59.018Z,13.59
2023-03-12T04:18:01.233Z,13.58
2023-03-12T04:23:03.406Z,13.64
2023-03-12T04:28:06.654Z,13.41
2023-03-12T04:33:09.285Z,13.35
2023-03-12T04:38:11.979Z,13.38
2023-03-12T04:43:14.617Z,13.37
2023-03-12T04:48:16.723Z,12.97
2023-03-12T04:53:19.905Z,12.80
2023-03-12T04:58:22.768Z,12.84
2023-03-12T05:03:25.231Z,12.87
2023-03-12T05:08:27.516Z,12.86
2023-03-12T05:13:29.676Z,12.76
2023-03-12T05:18:31.942Z,12.83
2023-03-12T05:23:35.129Z,12.91
2023-03-12T05:28:37.241Z,12.91
2023-03-12T05:33:39.479Z,12.85
2023-03-12T05:38:43.045Z,12.97
2023-03-12T05:43:46.790Z,12.54
2023-03-12T05:48:49.007Z,12.83
2023-03-12T05:53:51.156Z,13.07
2023-03-12T05:58:53.765Z,12.97
2023-03-12T06:03:56.150Z,13.08
2023-03-12T06:08:58.311Z,13.26
2023-03-12T06:14:00.435Z,13.36
2023-03-12T06:19:04.296Z,13.53
2023-03-12T06:24:07.099Z,13.45
2023-03-12T06:29:09.357Z,13.80
2023-03-12T06:34:11.556Z,13.99
2023-03-12T06:39:13.841Z,14.28
2023-03-12T06:44:16.198Z,14.37
2023-03-12T06:49:19.348Z,14.24
2023-03-12T06:54:21.443Z,14.57
2023-03-12T06:59:25.275Z,14.62
2023-03-12T07:04:27.441Z,14.02
2023-03-12T07:09:29.674Z,14.45
2023-03-12T07:14:31.808Z,14.48
2023-03-12T07:19:34.023Z,14.55
2023-03-12T07:24:36.213Z,14.91
2023-03-12T07:29:38.426Z,15.19
2023-03-12T07:34:40.568Z,15.26
2023-03-12T07:39:44.788Z,15.38
2023-03-12T07:44:47.244Z,15.25
2023-03-12T07:55:11.251Z,15.56
2023-03-12T08:00:14.278Z,15.52
2023-03-12T08:05:16.655Z,15.43
2023-03-12T08:10:20.720Z,15.58
2023-03-12T08:15:23.060Z,15.73
2023-03-12T08:20:25.239Z,15.69
2023-03-12T08:25:27.842Z,15.59
2023-03-12T08:30:31.127Z,15.64
2023-03-12T08:35:33.292Z,15.83
2023-03-12T08:40:35.918Z,16.07
2023-03-12T08:45:38.210Z,16.22
2023-03-12T08:50:40.394Z,15.82
2023-03-12T08:55:42.622Z,15.96
2023-03-12T09:00:44.848Z,16.13
2023-03-12T09:05:46.978Z,16.18
2023-03-12T09:10:50.480Z,16.39
2023-03-12T09:15:52.563Z,16.56
2023-03-12T09:20:54.944Z,16.53
2023-03-12T09:25:57.709Z,16.43
2023-03-12T09:31:02.838Z,16.38
2023-03-12T09:36:05.284Z,16.03
2023-03-12T09:41:27.556Z,15.59
2023-03-12T09:46:47.572Z,15.63
2023-03-12T09:51:55.466Z,15.53
2023-03-12T09:57:03.445Z,15.59
2023-03-12T10:02:25.560Z,15.53
2023-03-12T10:07:42.014Z,15.10
2023-03-12T10:13:05.265Z,14.86
2023-03-12T10:18:38.748Z,14.80
2023-03-12T10:24:03.053Z,15.21
2023-03-12T10:29:16.540Z,14.85
2023-03-12T10:34:33.091Z,14.81
2023-03-12T10:39:35.822Z,14.84
2023-03-12T10:44:37.892Z,15.00
2023-03-12T10:49:40.913Z,14.88
2023-03-12T10:54:45.368Z,14.95
2023-03-12T10:59:49.323Z,14.79
2023-03-12T11:04:53.078Z,14.69
2023-03-12T11:10:26.352Z,14.97
2023-03-12T11:15:38.474Z,14.76
2023-03-12T11:20:41.081Z,14.63
2023-03-12T11:25:44.334Z,14.37
2023-03-12T11:30:47.372Z,14.44
2023-03-12T11:36:10.657Z,14.50
2023-03-12T11:41:47.831Z,14.39
2023-03-12T11:47:21.349Z,14.22
2023-03-12T11:52:41.333Z,14.22
2023-03-12T11:57:59.908Z,14.50
2023-03-12T12:03:16.289Z,14.64
2023-03-12T12:08:36.692Z,14.56
2023-03-12T12:13:53.314Z,14.44
2023-03-12T12:19:40.571Z,14.50
2023-03-12T12:25:14.830Z,14.58
2023-03-12T12:30:41.580Z,14.70
2023-03-12T12:35:44.171Z,14.69
2023-03-12T12:40:55.002Z,14.67
2023-03-12T12:46:02.720Z,14.76
2023-03-12T12:51:08.783Z,15.05
2023-03-12T12:56:33.875Z,14.86
2023-03-12T13:01:38.381Z,15.05
2023-03-12T13:07:19.205Z,15.08
2023-03-12T13:12:50.852Z,15.03
2023-03-12T13:17:53.134Z,15.04
2023-03-12T13:23:07.310Z,15.16
2023-03-12T13:28:33.151Z,15.24
2023-03-12T13:33:48.852Z,15.03
2023-03-12T13:39:01.176Z,15.23
2023-03-12T13:44:38.793Z,15.40
2023-03-12T13:49:53.100Z,15.28
2023-03-12T13:55:07.013Z,15.34
2023-03-12T14:00:30.112Z,15.26
2023-03-12T14:05:36.135Z,15.32
2023-03-12T14:10:54.096Z,15.48
2023-03-12T14:16:14.603Z,15.59
2023-03-12T14:21:18.840Z,15.33
2023-03-12T14:26:40.330Z,15.35
2023-03-12T14:31:50.461Z,15.45
2023-03-12T14:37:10.538Z,15.56
2023-03-12T14:42:26.238Z,15.64
2023-03-12T14:47:28.970Z,15.62
2023-03-12T14:52:31.572Z,15.44
2023-03-12T14:57:34.122Z,15.46
2023-03-12T15:02:38.540Z,15.64
2023-03-12T15:07:43.148Z,15.71
2023-03-12T15:12:46.505Z,15.58
2023-03-12T15:17:50.068Z,15.84
2023-03-12T15:22:53.342Z,16.25
2023-03-12T15:28:22.972Z,17.48
2023-03-12T15:33:26.968Z,17.68
2023-03-12T15:38:33.301Z,18.07
2023-03-12T15:43:38.719Z,19.62
2023-03-12T15:48:42.049Z,20.67
2023-03-12T15:53:44.326Z,21.29
2023-03-12T15:58:46.543Z,22.29
2023-03-12T16:03:49.563Z,22.63
2023-03-12T16:09:03.453Z,21.49
2023-03-12T16:14:13.889Z,20.00
2023-03-12T16:19:19.135Z,18.78
2023-03-12T16:24:21.579Z,17.98
2023-03-12T16:29:31.899Z,17.28
2023-03-12T16:34:33.994Z,16.80
2023-03-12T16:39:36.296Z,16.49
2023-03-12T16:44:38.877Z,16.11
2023-03-12T16:49:41.400Z,15.80
2023-03-12T16:54:43.740Z,15.60
2023-03-12T16:59:46.772Z,15.37
2023-03-12T17:04:49.302Z,15.31
2023-03-12T17:09:52.371Z,15.32
2023-03-12T17:14:55.245Z,15.31
2023-03-12T17:20:01.233Z,15.19
2023-03-12T17:25:04.146Z,15.05
2023-03-12T17:30:09.140Z,14.97
2023-03-12T17:35:11.963Z,15.04
2023-03-12T17:40:15.519Z,14.94
2023-03-12T17:45:19.511Z,14.78
2023-03-12T17:50:22.622Z,14.52
2023-03-12T17:55:24.853Z,14.51
2023-03-12T18:00:26.985Z,14.52
2023-03-12T18:05:29.815Z,14.50
2023-03-12T18:10:34.966Z,14.37
2023-03-12T18:15:38.167Z,14.44
2023-03-12T18:20:41.155Z,14.35
2023-03-12T18:25:44.490Z,14.48
2023-03-12T18:30:48.016Z,14.53
2023-03-12T18:35:53.230Z,14.11
2023-03-12T18:41:19.546Z,13.87
2023-03-12T18:46:25.001Z,13.63
2023-03-12T18:51:27.813Z,13.84
2023-03-12T18:56:30.421Z,12.96
2023-03-12T19:06:52.892Z,12.88
2023-03-12T19:11:55.768Z,12.97
2023-03-12T19:16:58.342Z,12.82
2023-03-12T19:22:02.762Z,12.74
2023-03-12T19:27:04.982Z,12.42
2023-03-12T19:32:08.274Z,12.72
2023-03-12T19:37:10.691Z,12.78
2023-03-12T19:42:14.056Z,13.01
2023-03-12T19:47:18.332Z,12.90
2023-03-12T19:52:21.659Z,12.74
2023-03-12T19:57:24.836Z,12.85
2023-03-12T20:02:27.806Z,12.58
2023-03-12T20:07:30.105Z,12.75
2023-03-12T20:12:33.645Z,12.30
2023-03-12T20:17:36.605Z,12.47
2023-03-12T20:22:38.786Z,12.33
2023-03-12T20:27:41.869Z,12.29
2023-03-12T20:32:44.204Z,12.32
2023-03-12T20:37:46.583Z,12.48
2023-03-12T20:42:48.735Z,12.59
2023-03-12T20:47:51.637Z,12.85
2023-03-12T20:52:55.141Z,12.97
2023-03-12T20:57:57.322Z,13.14
2023-03-12T21:02:59.627Z,13.06
2023-03-12T21:08:02.099Z,13.00
2023-03-12T21:13:08.843Z,13.10
2023-03-12T21:18:11.928Z,13.08
2023-03-12T21:23:16.750Z,12.89
2023-03-12T21:28:19.782Z,12.70
2023-03-12T21:33:22.479Z,12.83
2023-03-12T21:38:25.467Z,12.72
2023-03-12T21:43:29.761Z,12.75
2023-03-12T21:48:32.059Z,12.41
2023-03-12T21:53:34.766Z,12.49
2023-03-12T21:58:37.555Z,12.46
2023-03-12T22:03:42.323Z,12.47
2023-03-12T22:08:48.985Z,12.15
2023-03-12T22:13:52.235Z,12.42
2023-03-12T22:18:54.566Z,12.22
2023-03-12T22:23:58.521Z,12.24
2023-03-12T22:29:02.598Z,12.47
2023-03-12T22:34:04.928Z,12.38
2023-03-12T22:39:07.248Z,12.36
2023-03-12T22:44:09.782Z,12.12
2023-03-12T22:49:12.097Z,12.30
2023-03-12T22:54:14.342Z,12.36
2023-03-12T22:59:16.511Z,12.22
2023-03-12T23:04:18.817Z,12.20
2023-03-12T23:09:21.138Z,12.15
2023-03-12T23:14:23.294Z,12.02
2023-03-12T23:19:25.478Z,12.04
2023-03-12T23:24:30.017Z,12.02
2023-03-12T23:29:33.334Z,12.02
2023-03-12T23:34:35.426Z,11.95
2023-03-12T23:39:53.506Z,11.87
2023-03-12T23:44:56.363Z,11.90
2023-03-12T23:49:59.360Z,11.84
2023-03-12T23:55:01.529Z,11.67
